Dades meteomassalio
Diari Summary for Maig 17, 2017 Units:  English    Metric   Both
« Previous Day
Next Day »
Diari Semanal Mensual Anual Personalitzat
  Maxima: Minima: Mijana:
Temperatura: TemperatureC °F 10.3 °F 21 °F
Rosada: DewpointC °F 4.1 °F 8.3 °F
Humitat: Humidity % 20 % 46 %
Velocitat del vent: WindSpeedKMH mph 0.0 mph 7.9 mph
Racha vent: WindSpeedGustKMH mph - -
Vent:- - SE
Pressio: PressurehPa in 1014.1 in -
Pluja: 0.0 in    
Historical Graphs
 
 
Tabular Data for Maig 17, 2017
Time Temperature Dew Point Pressure Wind Wind Speed Wind Gust Humidity Rainfall Rate (Hourly) solar Conditions
TemperatureC °F DewpointC °F PressurehPa in Calm     Humidity % HourlyPrecipMM in SolarRadiationWatts/m^2 W/m2 Conditions
00:02 21.2 °F 7.0 °F 1022.2 in Calm     40 % 0.0 in 0.0 W/m2 CLR
00:07 21.1 °F 7.0 °F 1022.6 in Calm     40 % 0.0 in 0.0 W/m2 CLR
00:12 20.9 °F 7.2 °F 1022.2 in Calm     41 % 0.0 in 0.0 W/m2 CLR
00:17 20.7 °F 7.3 °F 1022.2 in Calm     42 % 0.0 in 0.0 W/m2 CLR
00:18 20.7 °F 7.3 °F 1022.2 in Calm     42 % 0.0 in 0.0 W/m2 CLR
00:23 20.4 °F 7.4 °F 1022.2 in Calm     43 % 0.0 in 0.0 W/m2 CLR
00:28 20.1 °F 7.1 °F 1022.2 in Calm     43 % 0.0 in 0.0 W/m2 CLR
00:33 20.0 °F 7.1 °F 1022.2 in Calm     43 % 0.0 in 0.0 W/m2 CLR
00:38 19.9 °F 6.9 °F 1022.2 in Calm     43 % 0.0 in 0.0 W/m2 CLR
00:43 19.7 °F 7.8 °F 1022.2 in Calm     46 % 0.0 in 0.0 W/m2 CLR
00:48 19.3 °F 7.4 °F 1022.2 in Calm     46 % 0.0 in 0.0 W/m2 CLR
00:53 19.1 °F 7.2 °F 1022.2 in Calm     46 % 0.0 in 0.0 W/m2 CLR
00:58 18.8 °F 6.9 °F 1022.2 in Calm     46 % 0.0 in 0.0 W/m2 CLR
01:03 18.7 °F 7.2 °F 1022.2 in Calm     47 % 0.0 in 0.0 W/m2 CLR
01:08 18.6 °F 7.1 °F 1022.2 in Calm     47 % 0.0 in 0.0 W/m2 CLR
01:13 18.4 °F 7.2 °F 1022.2 in Calm     48 % 0.0 in 0.0 W/m2 CLR
01:18 18.1 °F 7.2 °F 1022.2 in Calm     49 % 0.0 in 0.0 W/m2 CLR
01:23 17.8 °F 7.3 °F 1022.2 in Calm     50 % 0.0 in 0.0 W/m2 CLR
01:28 17.5 °F 7.2 °F 1022.2 in Calm     51 % 0.0 in 0.0 W/m2 CLR
01:33 17.3 °F 6.8 °F 1022.2 in Calm     50 % 0.0 in 0.0 W/m2 CLR
01:38 17.2 °F 6.4 °F 1022.2 in Calm     49 % 0.0 in 0.0 W/m2 CLR
01:43 17.2 °F 6.4 °F 1022.2 in Calm     49 % 0.0 in 0.0 W/m2 CLR
01:48 17.2 °F 6.1 °F 1022.2 in Calm     48 % 0.0 in 0.0 W/m2 CLR
01:53 17.3 °F 6.2 °F 1022.2 in Calm     48 % 0.0 in 0.0 W/m2 CLR
01:58 17.3 °F 5.8 °F 1021.9 in Calm     47 % 0.0 in 0.0 W/m2 CLR
02:03 17.2 °F 5.8 °F 1022.2 in Calm     47 % 0.0 in 0.0 W/m2 CLR
02:08 17.2 °F 6.4 °F 1021.9 in Calm     49 % 0.0 in 0.0 W/m2 CLR
02:13 17.1 °F 5.9 °F 1021.9 in Calm     48 % 0.0 in 0.0 W/m2 CLR
02:18 16.8 °F 6.9 °F 1021.9 in Calm     52 % 0.0 in 0.0 W/m2 CLR
02:23 16.5 °F 7.2 °F 1021.9 in Calm     54 % 0.0 in 0.0 W/m2 CLR
02:28 16.2 °F 6.9 °F 1021.9 in Calm     54 % 0.0 in 0.0 W/m2 CLR
02:33 15.9 °F 6.6 °F 1021.9 in Calm     54 % 0.0 in 0.0 W/m2 CLR
02:38 15.6 °F 6.6 °F 1021.9 in Calm     55 % 0.0 in 0.0 W/m2 CLR
02:43 15.3 °F 6.8 °F 1021.9 in Calm     57 % 0.0 in 0.0 W/m2 CLR
02:48 15.1 °F 6.8 °F 1021.9 in Calm     58 % 0.0 in 0.0 W/m2 CLR
02:53 14.8 °F 6.9 °F 1021.9 in Calm     59 % 0.0 in 0.0 W/m2 CLR
02:58 14.6 °F 6.7 °F 1021.9 in Calm     59 % 0.0 in 0.0 W/m2 CLR
03:03 14.5 °F 6.8 °F 1021.9 in Calm     60 % 0.0 in 0.0 W/m2 CLR
03:08 14.4 °F 6.9 °F 1021.9 in Calm     61 % 0.0 in 0.0 W/m2 CLR
03:13 14.2 °F 6.6 °F 1021.6 in Calm     60 % 0.0 in 0.0 W/m2 CLR
03:18 14.0 °F 6.6 °F 1021.6 in Calm     61 % 0.0 in 0.0 W/m2 CLR
03:23 13.8 °F 6.7 °F 1021.6 in Calm     62 % 0.0 in 0.0 W/m2 CLR
03:28 13.7 °F 6.8 °F 1021.6 in Calm     63 % 0.0 in 0.0 W/m2 CLR
03:33 13.7 °F 6.7 °F 1021.6 in Calm     63 % 0.0 in 0.0 W/m2 CLR
03:38 13.5 °F 6.6 °F 1021.2 in Calm     63 % 0.0 in 0.0 W/m2 CLR
03:43 13.4 °F 6.5 °F 1021.2 in Calm     63 % 0.0 in 0.0 W/m2 CLR
03:48 13.2 °F 6.6 °F 1021.2 in Calm     64 % 0.0 in 0.0 W/m2 CLR
03:53 13.2 °F 6.5 °F 1021.2 in Calm     64 % 0.0 in 0.0 W/m2 CLR
03:58 13.1 °F 6.4 °F 1021.2 in Calm     64 % 0.0 in 0.0 W/m2 CLR
04:03 13.1 °F 6.4 °F 1021.2 in Calm     64 % 0.0 in 0.0 W/m2 CLR
04:08 13.1 °F 6.6 °F 1021.2 in Calm     65 % 0.0 in 0.0 W/m2 CLR
04:13 12.8 °F 6.4 °F 1021.2 in Calm     65 % 0.0 in 0.0 W/m2 CLR
04:18 12.7 °F 6.5 °F 1021.2 in Calm     66 % 0.0 in 0.0 W/m2 CLR
04:28 12.6 °F 6.2 °F 1021.2 in Calm     65 % 0.0 in 0.0 W/m2 CLR
04:33 12.5 °F 6.3 °F 1021.2 in Calm     66 % 0.0 in 0.0 W/m2 CLR
04:38 12.4 °F 6.3 °F 1021.2 in Calm     66 % 0.0 in 0.0 W/m2 CLR
04:43 12.3 °F 6.2 °F 1021.2 in Calm     66 % 0.0 in 0.0 W/m2 CLR
04:48 12.2 °F 6.3 °F 1021.2 in Calm     67 % 0.0 in 0.0 W/m2 CLR
04:53 12.1 °F 6.2 °F 1020.9 in Calm     67 % 0.0 in 0.0 W/m2 CLR
04:54 12.1 °F 6.1 °F 1020.9 in Calm     67 % 0.0 in 0.0 W/m2 CLR
04:59 11.9 °F 6.2 °F 1020.9 in Calm     68 % 0.0 in 0.0 W/m2 CLR
05:04 11.9 °F 6.2 °F 1020.9 in Calm     68 % 0.0 in 0.0 W/m2 CLR
05:09 11.8 °F 6.1 °F 1020.9 in Calm     68 % 0.0 in 0.0 W/m2 CLR
05:14 11.7 °F 6.0 °F 1020.9 in Calm     68 % 0.0 in 0.0 W/m2 CLR
05:19 11.7 °F 5.9 °F 1020.9 in Calm     68 % 0.0 in 0.0 W/m2 CLR
05:24 11.6 °F 6.1 °F 1020.9 in Calm     69 % 0.0 in 0.0 W/m2 CLR
05:29 11.5 °F 6.0 °F 1020.9 in Calm     69 % 0.0 in 0.0 W/m2 CLR
05:34 11.4 °F 5.9 °F 1020.9 in Calm     69 % 0.0 in 0.0 W/m2 CLR
05:39 11.3 °F 5.8 °F 1020.9 in Calm     69 % 0.0 in 0.0 W/m2 CLR
05:44 11.2 °F 5.9 °F 1020.9 in Calm     70 % 0.0 in 0.0 W/m2 CLR
05:49 11.1 °F 5.8 °F 1020.9 in Calm     70 % 0.0 in 0.0 W/m2 CLR
05:54 11.1 °F 5.8 °F 1020.9 in Calm     70 % 0.0 in 0.0 W/m2 CLR
05:59 10.9 °F 5.7 °F 1020.9 in Calm     70 % 0.0 in 0.0 W/m2 CLR
06:04 10.9 °F 5.6 °F 1020.9 in Calm     70 % 0.0 in 0.0 W/m2 CLR
06:09 10.8 °F 5.7 °F 1020.9 in Calm     71 % 0.0 in 0.0 W/m2 CLR
06:14 10.7 °F 5.7 °F 1020.9 in Calm     71 % 0.0 in 0.0 W/m2 CLR
06:19 10.7 °F 5.7 °F 1020.9 in Calm     71 % 0.0 in 0.0 W/m2 CLR
06:24 10.7 °F 5.4 °F 1021.2 in Calm     70 % 0.0 in 0.0 W/m2 CLR
06:29 10.7 °F 5.4 °F 1020.9 in Calm     70 % 0.0 in 0.0 W/m2 OVC
06:34 10.6 °F 5.4 °F 1020.9 in Calm     70 % 0.0 in 5.0 W/m2 OVC
06:39 10.6 °F 5.3 °F 1020.9 in Calm     70 % 0.0 in 5.0 W/m2 OVC
06:44 10.5 °F 5.3 °F 1020.9 in Calm     70 % 0.0 in 7.0 W/m2 BKN
06:49 10.4 °F 5.4 °F 1020.9 in Calm     71 % 0.0 in 12.0 W/m2 BKN
06:54 10.4 °F 5.2 °F 1020.9 in Calm     70 % 0.0 in 18.0 W/m2 BKN
06:59 10.4 °F 5.3 °F 1020.9 in Calm     71 % 0.0 in 23.0 W/m2 BKN
07:04 10.3 °F 5.3 °F 1020.9 in Calm     71 % 0.0 in 28.0 W/m2 BKN
07:09 10.4 °F 5.3 °F 1020.9 in Calm     71 % 0.0 in 30.0 W/m2 BKN
07:14 10.5 °F 5.3 °F 1020.9 in Calm     70 % 0.0 in 33.0 W/m2 BKN
07:19 10.6 °F 5.1 °F 1020.9 in Calm     69 % 0.0 in 39.0 W/m2 BKN
07:24 10.8 °F 5.3 °F 1020.9 in Calm     69 % 0.0 in 40.0 W/m2 BKN
07:29 11.0 °F 5.3 °F 1020.9 in Calm     68 % 0.0 in 54.0 W/m2 SCT
07:34 11.2 °F 5.5 °F 1020.5 in Calm     68 % 0.0 in 69.0 W/m2 FEW
07:39 11.4 °F 5.5 °F 1020.9 in Calm     67 % 0.0 in 76.0 W/m2 FEW
07:44 11.6 °F 5.6 °F 1020.9 in Calm     67 % 0.0 in 100.0 W/m2 FEW
07:49 11.8 °F 5.6 °F 1020.9 in Calm     66 % 0.0 in 120.0 W/m2 CLR
07:54 12.1 °F 5.9 °F 1020.9 in Calm     66 % 0.0 in 132.0 W/m2 CLR
07:59 12.6 °F 6.4 °F 1020.9 in Calm     66 % 0.0 in 163.0 W/m2 CLR
08:04 13.0 °F 6.3 °F 1020.5 in Calm     64 % 0.0 in 179.0 W/m2 CLR
08:09 13.4 °F 6.0 °F 1020.5 in Calm     61 % 0.0 in 209.0 W/m2 CLR
08:14 13.9 °F 6.5 °F 1020.5 in Calm     61 % 0.0 in 216.0 W/m2 CLR
08:19 14.2 °F 6.6 °F 1020.5 in Calm     60 % 0.0 in 251.0 W/m2 CLR
08:24 14.7 °F 6.8 °F 1020.5 in Calm     59 % 0.0 in 269.0 W/m2 CLR
08:30 15.2 °F 7.0 °F 1020.5 in Calm     58 % 0.0 in 288.0 W/m2 CLR
08:35 15.7 °F 7.2 °F 1020.5 in Calm     57 % 0.0 in 290.0 W/m2 CLR
08:40 16.2 °F 7.4 °F 1020.5 in Calm     56 % 0.0 in 294.0 W/m2 CLR
08:45 16.8 °F 7.7 °F 1020.5 in Calm     55 % 0.0 in 257.0 W/m2 CLR
08:50 17.3 °F 7.9 °F 1020.5 in Calm     54 % 0.0 in 364.0 W/m2 CLR
08:55 17.7 °F 8.6 °F 1020.5 in Calm     55 % 0.0 in 345.0 W/m2 CLR
09:00 18.2 °F 10.1 °F 1020.5 in Calm     59 % 0.0 in 371.0 W/m2 CLR
09:05 18.9 °F 9.9 °F 1020.5 in Calm     56 % 0.0 in 387.0 W/m2 CLR
09:10 19.6 °F 10.3 °F 1020.5 in Calm     55 % 0.0 in 387.0 W/m2 CLR
09:15 20.2 °F 10.3 °F 1020.2 in Calm     53 % 0.0 in 397.0 W/m2 CLR
09:20 20.7 °F 11.3 °F 1020.2 in Calm     55 % 0.0 in 357.0 W/m2 CLR
09:25 20.9 °F 11.5 °F 1020.2 in Calm     55 % 0.0 in 480.0 W/m2 CLR
09:30 21.2 °F 11.8 °F 1020.2 in Calm     55 % 0.0 in 374.0 W/m2 CLR
09:35 21.3 °F 11.6 °F 1019.9 in NE 1.9 mph   54 % 0.0 in 278.0 W/m2 CLR
09:37 21.3 °F 11.6 °F 1020.2 in Calm     54 % 0.0 in 299.0 W/m2 CLR
09:42 21.4 °F 11.7 °F 1019.9 in Calm     54 % 0.0 in 316.0 W/m2 CLR
09:47 21.6 °F 12.1 °F 1019.9 in Calm     55 % 0.0 in 292.0 W/m2 CLR
09:52 21.8 °F 12.6 °F 1019.9 in Calm     56 % 0.0 in 311.0 W/m2 CLR
09:57 22.2 °F 12.7 °F 1019.9 in Calm     55 % 0.0 in 334.0 W/m2 CLR
10:02 22.4 °F 12.6 °F 1019.9 in Calm     54 % 0.0 in 376.0 W/m2 CLR
10:07 22.7 °F 12.7 °F 1019.9 in Calm     53 % 0.0 in 517.0 W/m2 CLR
10:12 23.1 °F 12.7 °F 1019.9 in Calm     52 % 0.0 in 533.0 W/m2 CLR
10:17 23.4 °F 12.7 °F 1019.9 in ENE 7.4 mph 7.4 mph 51 % 0.0 in 554.0 W/m2 CLR
10:22 23.8 °F 12.7 °F 1019.5 in ENE 8.0 mph 8.0 mph 50 % 0.0 in 633.0 W/m2 CLR
10:27 24.2 °F 12.2 °F 1019.5 in ENE 5.6 mph   47 % 0.0 in 612.0 W/m2 CLR
10:32 24.5 °F 10.4 °F 1019.5 in ESE 8.0 mph 8.0 mph 41 % 0.0 in 591.0 W/m2 CLR
10:37 24.5 °F 10.0 °F 1019.5 in Calm     40 % 0.0 in 694.0 W/m2 CLR
10:42 24.6 °F 11.6 °F 1019.5 in East 4.8 mph 4.8 mph 44 % 0.0 in 677.0 W/m2 CLR
10:47 25.2 °F 11.3 °F 1019.5 in ENE 7.4 mph 7.4 mph 42 % 0.0 in 675.0 W/m2 CLR
10:52 25.4 °F 11.2 °F 1019.5 in Calm   2.3 mph 41 % 0.0 in 330.0 W/m2 CLR
10:57 25.1 °F 10.2 °F 1019.2 in ESE 6.4 mph 6.4 mph 39 % 0.0 in 295.0 W/m2 CLR
11:02 25.0 °F 10.1 °F 1019.2 in ENE 6.4 mph 6.4 mph 39 % 0.0 in 350.0 W/m2 CLR
11:07 25.2 °F 10.2 °F 1019.2 in ENE 9.3 mph 9.3 mph 39 % 0.0 in 691.0 W/m2 CLR
11:12 25.4 °F 10.4 °F 1019.2 in East 14.8 mph 14.8 mph 39 % 0.0 in 791.0 W/m2 CLR
11:17 25.5 °F 10.5 °F 1019.2 in East 11.1 mph 11.1 mph 39 % 0.0 in 645.0 W/m2 CLR
11:22 25.4 °F 9.7 °F 1019.2 in ESE 9.7 mph 9.7 mph 37 % 0.0 in 489.0 W/m2 CLR
11:27 25.6 °F 9.0 °F 1018.8 in ESE 9.7 mph 9.7 mph 35 % 0.0 in 522.0 W/m2 CLR
11:32 25.7 °F 9.5 °F 1018.8 in East 5.6 mph 5.6 mph 36 % 0.0 in 621.0 W/m2 CLR
11:37 26.0 °F 9.8 °F 1018.8 in East 9.7 mph 9.7 mph 36 % 0.0 in 585.0 W/m2 CLR
11:42 26.0 °F 9.3 °F 1018.8 in ESE 9.7 mph 9.7 mph 35 % 0.0 in 605.0 W/m2 CLR
11:47 26.3 °F 9.2 °F 1018.8 in ESE 16.7 mph 16.7 mph 34 % 0.0 in 663.0 W/m2 CLR
11:52 26.2 °F 8.6 °F 1018.5 in SE 14.8 mph 14.8 mph 33 % 0.0 in 591.0 W/m2 CLR
11:57 26.1 °F 9.4 °F 1018.5 in East 9.3 mph 9.3 mph 35 % 0.0 in 550.0 W/m2 CLR
12:02 26.3 °F 9.6 °F 1018.5 in SE 11.3 mph 11.3 mph 35 % 0.0 in 684.0 W/m2 CLR
12:07 26.3 °F 9.2 °F 1018.5 in ESE 16.7 mph 16.7 mph 34 % 0.0 in 682.0 W/m2 CLR
12:12 26.5 °F 10.2 °F 1018.5 in East 14.8 mph 14.8 mph 36 % 0.0 in 870.0 W/m2 CLR
12:17 26.7 °F 9.6 °F 1018.5 in East 11.1 mph 11.1 mph 34 % 0.0 in 381.0 W/m2 CLR
12:22 26.7 °F 9.5 °F 1018.5 in ENE 8.0 mph 8.0 mph 34 % 0.0 in 1164.0 W/m2 CLR
12:27 27.0 °F 9.8 °F 1018.2 in East 9.3 mph 9.3 mph 34 % 0.0 in 1194.0 W/m2 CLR
12:32 27.5 °F 10.7 °F 1018.2 in ENE 9.7 mph 9.7 mph 35 % 0.0 in 1039.0 W/m2 CLR
12:37 27.9 °F 11.4 °F 1018.2 in NE 16.1 mph 16.1 mph 36 % 0.0 in 1134.0 W/m2 CLR
12:42 28.2 °F 10.4 °F 1018.2 in ENE 16.7 mph 16.7 mph 33 % 0.0 in 1146.0 W/m2 CLR
12:47 28.0 °F 9.8 °F 1018.2 in ESE 8.0 mph 8.0 mph 32 % 0.0 in 448.0 W/m2 CLR
12:52 27.2 °F 10.8 °F 1018.2 in ESE 13.0 mph 13.0 mph 36 % 0.0 in 404.0 W/m2 CLR
12:57 26.8 °F 10.9 °F 1017.8 in ENE 12.9 mph 12.9 mph 37 % 0.0 in 404.0 W/m2 CLR
13:02 26.9 °F 11.4 °F 1017.8 in ENE 16.7 mph 16.7 mph 38 % 0.0 in 469.0 W/m2 CLR
13:07 26.5 °F 12.6 °F 1017.5 in ENE 14.8 mph 14.8 mph 42 % 0.0 in 348.0 W/m2 CLR
13:12 26.7 °F 13.1 °F 1017.5 in East 16.7 mph 16.7 mph 43 % 0.0 in 267.0 W/m2 CLR
13:17 26.8 °F 13.2 °F 1017.5 in ENE 16.1 mph 16.1 mph 43 % 0.0 in 988.0 W/m2 CLR
13:22 26.9 °F 12.2 °F 1017.5 in East 13.0 mph 13.0 mph 40 % 0.0 in 974.0 W/m2 CLR
13:27 27.4 °F 12.9 °F 1017.2 in ENE 18.5 mph 18.5 mph 41 % 0.0 in 795.0 W/m2 CLR
13:32 27.7 °F 11.7 °F 1017.2 in ENE 22.2 mph 22.2 mph 37 % 0.0 in 700.0 W/m2 CLR
13:37 28.1 °F 11.6 °F 1017.2 in NNE 3.7 mph 3.7 mph 36 % 0.0 in 895.0 W/m2 CLR
13:42 28.8 °F 8.5 °F 1017.2 in South 24.1 mph 24.1 mph 28 % 0.0 in 928.0 W/m2 CLR
13:47 29.0 °F 6.4 °F 1016.8 in SW 11.1 mph 11.1 mph 24 % 0.0 in 947.0 W/m2 CLR
13:52 29.1 °F 5.8 °F 1016.8 in South 20.4 mph 20.4 mph 23 % 0.0 in 954.0 W/m2 CLR
13:57 28.7 °F 6.2 °F 1016.8 in ESE 24.1 mph 24.1 mph 24 % 0.0 in 969.0 W/m2 CLR
14:02 28.9 °F 6.3 °F 1016.8 in South 22.2 mph 22.2 mph 24 % 0.0 in 962.0 W/m2 CLR
14:07 29.1 °F 6.4 °F 1016.8 in SE 22.5 mph 22.5 mph 24 % 0.0 in 942.0 W/m2 CLR
14:12 29.1 °F 5.8 °F 1016.5 in South 18.5 mph 18.5 mph 23 % 0.0 in 904.0 W/m2 CLR
14:17 29.2 °F 4.6 °F 1016.5 in SSW 13.0 mph 13.0 mph 21 % 0.0 in 937.0 W/m2 CLR
14:22 29.6 °F 4.2 °F 1016.8 in SW 25.9 mph 25.9 mph 20 % 0.0 in 925.0 W/m2 CLR
14:27 29.4 °F 4.1 °F 1016.5 in South 9.7 mph 9.7 mph 20 % 0.0 in 926.0 W/m2 CLR
14:32 29.5 °F 4.9 °F 1016.5 in SSE 16.7 mph 16.7 mph 21 % 0.0 in 919.0 W/m2 CLR
14:37 29.8 °F 5.1 °F 1016.5 in SSW 20.9 mph 20.9 mph 21 % 0.0 in 868.0 W/m2 CLR
14:42 29.7 °F 4.3 °F 1016.5 in South 11.1 mph 11.1 mph 20 % 0.0 in 819.0 W/m2 CLR
14:47 29.5 °F 4.2 °F 1016.5 in South 11.3 mph 11.3 mph 20 % 0.0 in 810.0 W/m2 CLR
14:52 29.4 °F 6.1 °F 1016.5 in SSW 14.8 mph 14.8 mph 23 % 0.0 in 788.0 W/m2 CLR
14:57 29.4 °F 6.1 °F 1016.1 in South 16.7 mph 16.7 mph 23 % 0.0 in 738.0 W/m2 CLR
15:02 29.2 °F 7.2 °F 1016.1 in South 18.5 mph 18.5 mph 25 % 0.0 in 613.0 W/m2 CLR
15:07 28.9 °F 6.9 °F 1016.1 in South 24.1 mph 24.1 mph 25 % 0.0 in 577.0 W/m2 CLR
15:12 28.9 °F 8.6 °F 1016.1 in South 29.6 mph 29.6 mph 28 % 0.0 in 577.0 W/m2 CLR
15:17 28.4 °F 8.6 °F 1016.1 in South 18.5 mph 18.5 mph 29 % 0.0 in 524.0 W/m2 CLR
15:22 28.3 °F 9.6 °F 1016.1 in South 25.9 mph 25.9 mph 31 % 0.0 in 527.0 W/m2 CLR
15:27 28.3 °F 9.6 °F 1016.1 in SE 25.7 mph 25.7 mph 31 % 0.0 in 473.0 W/m2 CLR
15:32 28.0 °F 9.3 °F 1016.1 in SSE 25.9 mph 25.9 mph 31 % 0.0 in 443.0 W/m2 CLR
15:37 27.4 °F 9.3 °F 1016.1 in SE 31.5 mph 31.5 mph 32 % 0.0 in 417.0 W/m2 CLR
15:43 27.3 °F 9.7 °F 1016.1 in South 25.7 mph 25.7 mph 33 % 0.0 in 404.0 W/m2 CLR
15:48 27.4 °F 9.2 °F 1015.8 in South 20.4 mph 20.4 mph 32 % 0.0 in 403.0 W/m2 CLR
15:53 27.3 °F 9.1 °F 1015.8 in South 31.5 mph 31.5 mph 32 % 0.0 in 390.0 W/m2 CLR
15:58 27.3 °F 8.7 °F 1015.8 in SE 18.5 mph 18.5 mph 31 % 0.0 in 388.0 W/m2 CLR
16:03 27.4 °F 9.2 °F 1015.5 in South 27.8 mph 27.8 mph 32 % 0.0 in 401.0 W/m2 CLR
16:08 27.1 °F 9.0 °F 1015.8 in SE 24.1 mph 24.1 mph 32 % 0.0 in 404.0 W/m2 CLR
16:13 27.1 °F 8.9 °F 1015.8 in SE 29.6 mph 29.6 mph 32 % 0.0 in 399.0 W/m2 CLR
16:18 26.9 °F 8.8 °F 1015.8 in South 27.8 mph 27.8 mph 32 % 0.0 in 381.0 W/m2 CLR
16:23 27.1 °F 9.4 °F 1015.8 in South 16.7 mph 16.7 mph 33 % 0.0 in 367.0 W/m2 CLR
16:28 26.9 °F 9.3 °F 1015.5 in SE 16.7 mph 16.7 mph 33 % 0.0 in 357.0 W/m2 CLR
16:33 27.1 °F 9.4 °F 1015.5 in South 13.0 mph 13.0 mph 33 % 0.0 in 353.0 W/m2 CLR
16:38 27.0 °F 8.9 °F 1015.5 in South 20.4 mph 20.4 mph 32 % 0.0 in 373.0 W/m2 CLR
16:43 27.0 °F 10.2 °F 1015.5 in South 18.5 mph 20.1 mph 35 % 0.0 in 352.0 W/m2 CLR
16:48 26.4 °F 10.2 °F 1015.5 in SSE 25.9 mph 25.9 mph 36 % 0.0 in 334.0 W/m2 CLR
16:53 26.3 °F 10.0 °F 1015.5 in ESE 25.9 mph 25.9 mph 36 % 0.0 in 325.0 W/m2 CLR
16:58 26.2 °F 9.9 °F 1015.5 in SE 25.7 mph 25.7 mph 36 % 0.0 in 362.0 W/m2 CLR
17:03 26.3 °F 10.0 °F 1015.1 in SE 18.5 mph 18.5 mph 36 % 0.0 in 434.0 W/m2 CLR
17:08 26.5 °F 9.8 °F 1015.1 in SE 18.5 mph 18.5 mph 35 % 0.0 in 668.0 W/m2 CLR
17:13 26.6 °F 8.9 °F 1015.1 in South 20.4 mph 20.4 mph 33 % 0.0 in 615.0 W/m2 CLR
17:18 26.6 °F 9.9 °F 1015.1 in SE 20.9 mph 20.9 mph 35 % 0.0 in 534.0 W/m2 CLR
17:20 26.5 °F 10.2 °F 1014.8 in SE 30.6 mph 30.6 mph 36 % 0.0 in 471.0 W/m2 CLR
17:25 26.3 °F 10.1 °F 1015.1 in SE 14.8 mph 14.8 mph 36 % 0.0 in 469.0 W/m2 CLR
17:30 26.3 °F 9.7 °F 1014.8 in South 14.8 mph 14.8 mph 35 % 0.0 in 420.0 W/m2 CLR
17:35 26.3 °F 9.7 °F 1014.8 in ESE 22.2 mph 22.2 mph 35 % 0.0 in 432.0 W/m2 CLR
17:40 26.3 °F 9.7 °F 1014.8 in SE 20.4 mph 20.4 mph 35 % 0.0 in 388.0 W/m2 CLR
17:45 26.3 °F 9.7 °F 1014.8 in SE 20.4 mph 20.4 mph 35 % 0.0 in 439.0 W/m2 CLR
17:50 26.3 °F 9.7 °F 1014.8 in SE 18.5 mph 18.5 mph 35 % 0.0 in 478.0 W/m2 CLR
17:55 26.5 °F 9.3 °F 1014.8 in SE 18.5 mph 18.5 mph 34 % 0.0 in 417.0 W/m2 CLR
18:00 26.4 °F 9.3 °F 1014.8 in SSE 16.7 mph 16.7 mph 34 % 0.0 in 448.0 W/m2 CLR
18:05 26.7 °F 9.6 °F 1014.8 in SE 22.2 mph 22.2 mph 34 % 0.0 in 411.0 W/m2 CLR
18:10 26.6 °F 9.4 °F 1014.8 in SE 11.1 mph 11.1 mph 34 % 0.0 in 436.0 W/m2 CLR
18:15 26.6 °F 9.8 °F 1014.8 in SSE 18.5 mph 18.5 mph 35 % 0.0 in 434.0 W/m2 CLR
18:20 26.7 °F 9.9 °F 1014.8 in SE 18.5 mph 18.5 mph 35 % 0.0 in 573.0 W/m2 CLR
18:25 26.6 °F 9.8 °F 1014.4 in SE 18.5 mph 18.5 mph 35 % 0.0 in 563.0 W/m2 CLR
18:30 26.8 °F 9.2 °F 1014.4 in SSE 22.5 mph 22.5 mph 33 % 0.0 in 584.0 W/m2 CLR
18:35 26.9 °F 8.3 °F 1014.4 in SSW 18.5 mph 18.5 mph 31 % 0.0 in 561.0 W/m2 CLR
18:40 27.1 °F 9.0 °F 1014.4 in SE 13.0 mph 13.0 mph 32 % 0.0 in 504.0 W/m2 CLR
18:45 27.0 °F 7.9 °F 1014.4 in SSE 20.4 mph 20.4 mph 30 % 0.0 in 455.0 W/m2 CLR
18:50 26.8 °F 8.3 °F 1014.4 in SE 18.5 mph 18.5 mph 31 % 0.0 in 380.0 W/m2 CLR
18:55 26.6 °F 8.6 °F 1014.4 in SE 14.8 mph 14.8 mph 32 % 0.0 in 390.0 W/m2 CLR
19:00 26.7 °F 8.2 °F 1014.4 in SSE 14.8 mph 14.8 mph 31 % 0.0 in 360.0 W/m2 CLR
19:05 26.7 °F 8.1 °F 1014.4 in South 14.8 mph 14.8 mph 31 % 0.0 in 313.0 W/m2 CLR
19:10 26.6 °F 8.1 °F 1014.4 in SSE 20.4 mph 20.4 mph 31 % 0.0 in 292.0 W/m2 CLR
19:15 26.4 °F 8.4 °F 1014.4 in South 14.8 mph 14.8 mph 32 % 0.0 in 301.0 W/m2 CLR
19:20 26.3 °F 8.3 °F 1014.1 in SSE 18.5 mph 18.5 mph 32 % 0.0 in 295.0 W/m2 CLR
19:25 26.1 °F 8.1 °F 1014.1 in SSE 22.2 mph 22.2 mph 32 % 0.0 in 278.0 W/m2 CLR
19:30 25.9 °F 8.4 °F 1014.1 in SSE 22.2 mph 22.2 mph 33 % 0.0 in 216.0 W/m2 CLR
19:35 25.9 °F 7.9 °F 1014.1 in SSE 18.5 mph 18.5 mph 32 % 0.0 in 232.0 W/m2 CLR
19:40 25.8 °F 8.3 °F 1014.1 in SE 18.5 mph 18.5 mph 33 % 0.0 in 207.0 W/m2 CLR
19:45 25.7 °F 8.2 °F 1014.1 in SE 18.5 mph 18.5 mph 33 % 0.0 in 125.0 W/m2 CLR
19:50 25.7 °F 8.2 °F 1014.1 in SSE 16.7 mph 16.7 mph 33 % 0.0 in 51.0 W/m2 CLR
19:55 25.4 °F 8.4 °F 1014.1 in ESE 11.1 mph 11.1 mph 34 % 0.0 in 44.0 W/m2 SCT
20:00 25.2 °F 8.2 °F 1014.1 in SE 14.8 mph 14.8 mph 34 % 0.0 in 39.0 W/m2 BKN
20:05 25.1 °F 8.2 °F 1014.1 in SE 13.0 mph 13.0 mph 34 % 0.0 in 35.0 W/m2 BKN
20:10 25.0 °F 8.4 °F 1014.1 in SSE 13.0 mph 13.0 mph 35 % 0.0 in 32.0 W/m2 BKN
20:15 24.9 °F 8.0 °F 1014.1 in SSE 16.7 mph 16.7 mph 34 % 0.0 in 46.0 W/m2 SCT
20:20 24.9 °F 8.4 °F 1014.1 in SE 11.1 mph 11.1 mph 35 % 0.0 in 60.0 W/m2 FEW
20:25 24.8 °F 8.3 °F 1014.1 in SE 4.8 mph   35 % 0.0 in 28.0 W/m2 BKN
20:30 24.6 °F 8.9 °F 1014.1 in ESE 7.4 mph 7.4 mph 37 % 0.0 in 25.0 W/m2 BKN
20:35 24.2 °F 9.7 °F 1014.1 in SSE 16.7 mph 16.7 mph 40 % 0.0 in 21.0 W/m2 BKN
20:40 24.0 °F 9.9 °F 1014.1 in SSE 7.4 mph 7.4 mph 41 % 0.0 in 19.0 W/m2 BKN
20:46 23.8 °F 9.7 °F 1014.1 in SE 11.1 mph 11.1 mph 41 % 0.0 in 18.0 W/m2 BKN
20:51 23.6 °F 9.9 °F 1014.1 in SSE 9.3 mph 9.3 mph 42 % 0.0 in 16.0 W/m2 BKN
20:56 23.4 °F 9.8 °F 1014.1 in SE 9.3 mph 9.3 mph 42 % 0.0 in 14.0 W/m2 BKN
21:01 23.3 °F 10.0 °F 1014.1 in SSE 9.3 mph 9.3 mph 43 % 0.0 in 11.0 W/m2 BKN
21:06 23.1 °F 9.8 °F 1014.1 in ESE 9.3 mph 9.3 mph 43 % 0.0 in 7.0 W/m2 BKN
21:11 22.9 °F 10.1 °F 1014.1 in SSE 5.6 mph 5.6 mph 44 % 0.0 in 5.0 W/m2 OVC
21:16 22.8 °F 10.2 °F 1014.1 in ESE 5.6 mph 5.6 mph 45 % 0.0 in 0.0 W/m2 OVC
21:21 22.6 °F 10.1 °F 1014.1 in SE 8.0 mph 8.0 mph 45 % 0.0 in 0.0 W/m2 OVC
21:26 22.4 °F 10.2 °F 1014.1 in SE 3.7 mph   46 % 0.0 in 0.0 W/m2 CLR
21:31 22.2 °F 10.1 °F 1014.1 in Calm     46 % 0.0 in 0.0 W/m2 CLR
21:36 22.1 °F 10.2 °F 1014.1 in SSE 5.6 mph 5.6 mph 47 % 0.0 in 0.0 W/m2 CLR
21:41 21.9 °F 10.1 °F 1014.1 in Calm     47 % 0.0 in 0.0 W/m2 CLR
21:46 21.8 °F 9.9 °F 1014.1 in Calm     47 % 0.0 in 0.0 W/m2 CLR
21:51 21.7 °F 10.2 °F 1014.4 in SE 5.6 mph 5.6 mph 48 % 0.0 in 0.0 W/m2 CLR
21:56 21.6 °F 10.1 °F 1014.1 in SE 1.9 mph 2.6 mph 48 % 0.0 in 0.0 W/m2 CLR
22:01 21.4 °F 10.0 °F 1014.1 in SSE 7.4 mph 7.4 mph 48 % 0.0 in 0.0 W/m2 CLR
22:06 21.3 °F 9.9 °F 1014.1 in SE 7.4 mph 7.4 mph 48 % 0.0 in 0.0 W/m2 CLR
22:11 21.2 °F 10.1 °F 1014.4 in Calm     49 % 0.0 in 0.0 W/m2 CLR
22:16 21.1 °F 10.0 °F 1014.4 in SE 5.6 mph 5.6 mph 49 % 0.0 in 0.0 W/m2 CLR
22:21 21.1 °F 9.9 °F 1014.4 in SSE 11.1 mph 11.1 mph 49 % 0.0 in 0.0 W/m2 CLR
22:26 21.0 °F 9.9 °F 1014.4 in SE 13.0 mph 13.0 mph 49 % 0.0 in 0.0 W/m2 CLR
22:31 20.9 °F 9.8 °F 1014.4 in South 5.6 mph 5.6 mph 49 % 0.0 in 0.0 W/m2 CLR
22:36 20.9 °F 9.8 °F 1014.1 in South 11.3 mph 11.3 mph 49 % 0.0 in 0.0 W/m2 CLR
22:41 20.9 °F 9.8 °F 1014.1 in South 9.3 mph 9.3 mph 49 % 0.0 in 0.0 W/m2 CLR
22:46 20.9 °F 9.5 °F 1014.4 in South 9.3 mph 9.3 mph 48 % 0.0 in 0.0 W/m2 CLR
22:51 21.0 °F 9.3 °F 1014.4 in SSW 13.0 mph 13.0 mph 47 % 0.0 in 0.0 W/m2 CLR
22:56 21.1 °F 9.3 °F 1014.4 in SSE 14.8 mph 14.8 mph 47 % 0.0 in 0.0 W/m2 CLR
23:01 21.1 °F 9.1 °F 1014.1 in SSE 14.8 mph 14.8 mph 46 % 0.0 in 0.0 W/m2 CLR
23:06 21.1 °F 9.1 °F 1014.1 in SE 7.4 mph 7.4 mph 46 % 0.0 in 0.0 W/m2 CLR
23:11 21.1 °F 8.7 °F 1014.1 in Calm     45 % 0.0 in 0.0 W/m2 CLR
23:16 21.0 °F 8.9 °F 1014.1 in Calm     46 % 0.0 in 0.0 W/m2 CLR
23:21 20.7 °F 9.0 °F 1014.1 in Calm     47 % 0.0 in 0.0 W/m2 CLR
23:26 20.5 °F 9.1 °F 1014.1 in Calm     48 % 0.0 in 0.0 W/m2 CLR
23:31 20.2 °F 9.4 °F 1014.1 in Calm     50 % 0.0 in 0.0 W/m2 CLR
23:36 20.1 °F 8.4 °F 1014.1 in Calm     47 % 0.0 in 0.0 W/m2 CLR
23:41 20.2 °F 8.6 °F 1014.1 in Calm     47 % 0.0 in 0.0 W/m2 CLR
23:46 20.2 °F 8.2 °F 1014.1 in Calm     46 % 0.0 in 0.0 W/m2 CLR
23:51 20.3 °F 8.3 °F 1014.1 in Calm     46 % 0.0 in 0.0 W/m2 CLR
23:56 20.3 °F 8.0 °F 1014.1 in Calm     45 % 0.0 in 0.0 W/m2 CLR
Lo Temps de Massalio
Compliments of Weather Underground - 1.25 mb